Time;durP1;ratioP1;P1;durP2;ratioP2;P2;SDS_P1;SDS_P2;PMS_P1;PMS_P2;Temp;Humidity;BMP_temperature;BMP_pressure;BME280_temperature;BME280_humidity;BME280_pressure;Samples;Min_cycle;Max_cycle;Signal;HPM_P1;HPM_P2
2023/03/06 00:00:10;;;;;;;27.90;12.70;;;;;;;-128.00;-1.00;-1.00;101160;1305;1003203;-34
2023/03/06 00:02:36;;;;;;;20.90;7.20;;;;;;;-128.00;-1.00;-1.00;101142;1305;1003311;-29
2023/03/06 00:05:01;;;;;;;24.10;12.50;;;;;;;-128.00;-1.00;-1.00;101181;1305;1003882;-29
2023/03/06 00:07:28;;;;;;;24.10;11.60;;;;;;;-128.00;-1.00;-1.00;101106;1305;1004015;-29
2023/03/06 00:09:53;;;;;;;24.80;10.90;;;;;;;-128.00;-1.00;-1.00;101183;1305;1002994;-34
2023/03/06 00:12:19;;;;;;;28.10;10.40;;;;;;;-128.00;-1.00;-1.00;101137;1305;1003186;-30
2023/03/06 00:14:45;;;;;;;14.90;7.80;;;;;;;-128.00;-1.00;-1.00;101118;1305;1002687;-33
2023/03/06 00:17:11;;;;;;;15.90;8.60;;;;;;;-128.00;-1.00;-1.00;101133;1305;1005001;-28
2023/03/06 00:19:37;;;;;;;16.00;9.30;;;;;;;-128.00;-1.00;-1.00;101223;1305;1003680;-29
2023/03/06 00:22:03;;;;;;;14.80;8.80;;;;;;;-128.00;-1.00;-1.00;101136;1305;1004810;-29
2023/03/06 00:24:28;;;;;;;15.00;8.20;;;;;;;-128.00;-1.00;-1.00;101226;1305;1003571;-28
2023/03/06 00:26:54;;;;;;;16.50;8.20;;;;;;;-128.00;-1.00;-1.00;101185;1305;1002984;-29
2023/03/06 00:29:20;;;;;;;9.70;5.70;;;;;;;-128.00;-1.00;-1.00;101209;1305;1003552;-28
2023/03/06 00:31:46;;;;;;;12.70;4.60;;;;;;;-128.00;-1.00;-1.00;101115;1305;1003042;-28
2023/03/06 00:34:13;;;;;;;17.60;6.80;;;;;;;-128.00;-1.00;-1.00;101208;1305;1002782;-28
2023/03/06 00:36:40;;;;;;;15.30;6.00;;;;;;;-128.00;-1.00;-1.00;101106;1305;1003188;-30
2023/03/06 00:39:06;;;;;;;23.90;7.80;;;;;;;-128.00;-1.00;-1.00;101183;1305;1005173;-35
2023/03/06 00:41:32;;;;;;;11.50;5.60;;;;;;;-128.00;-1.00;-1.00;101146;1301;1004003;-29
2023/03/06 00:43:58;;;;;;;15.60;6.30;;;;;;;-128.00;-1.00;-1.00;101122;1305;1003875;-29
2023/03/06 00:46:24;;;;;;;4.50;2.70;;;;;;;-128.00;-1.00;-1.00;101111;1305;1003913;-29
2023/03/06 00:48:50;;;;;;;10.00;5.20;;;;;;;-128.00;-1.00;-1.00;101097;1305;1002938;-29
2023/03/06 00:51:18;;;;;;;8.50;5.10;;;;;;;-128.00;-1.00;-1.00;100793;1305;1003590;-29
2023/03/06 00:53:44;;;;;;;12.30;5.40;;;;;;;-128.00;-1.00;-1.00;101070;1305;1003441;-30
2023/03/06 00:56:10;;;;;;;9.80;5.30;;;;;;;-128.00;-1.00;-1.00;101118;1298;1003488;-28
2023/03/06 00:58:36;;;;;;;9.70;5.60;;;;;;;-128.00;-1.00;-1.00;101123;1305;1003532;-30
2023/03/06 01:01:02;;;;;;;10.60;5.40;;;;;;;-128.00;-1.00;-1.00;101114;1305;1002850;-33
2023/03/06 01:03:28;;;;;;;10.60;5.20;;;;;;;-128.00;-1.00;-1.00;101084;1305;1003612;-28
2023/03/06 01:05:54;;;;;;;13.70;6.10;;;;;;;-128.00;-1.00;-1.00;101147;1305;1003228;-29
2023/03/06 01:08:20;;;;;;;12.30;5.20;;;;;;;-128.00;-1.00;-1.00;101125;1305;1004162;-31
2023/03/06 01:10:46;;;;;;;8.10;4.40;;;;;;;-128.00;-1.00;-1.00;101120;1305;1004567;-32
2023/03/06 01:13:12;;;;;;;11.20;4.30;;;;;;;-128.00;-1.00;-1.00;101095;1305;1003296;-32
2023/03/06 01:15:37;;;;;;;9.10;5.70;;;;;;;-128.00;-1.00;-1.00;101026;1305;1003045;-27
2023/03/06 01:18:03;;;;;;;12.60;6.80;;;;;;;-128.00;-1.00;-1.00;101117;1305;1004390;-29
2023/03/06 01:20:29;;;;;;;9.90;5.70;;;;;;;-128.00;-1.00;-1.00;101147;1305;1004317;-33
2023/03/06 01:22:55;;;;;;;10.30;5.30;;;;;;;-128.00;-1.00;-1.00;101144;1305;1003265;-30
2023/03/06 01:25:23;;;;;;;8.40;4.60;;;;;;;-128.00;-1.00;-1.00;101038;1305;1002995;-29
2023/03/06 01:27:49;;;;;;;13.90;5.90;;;;;;;-128.00;-1.00;-1.00;101133;1305;1003421;-29
2023/03/06 01:30:15;;;;;;;11.90;6.70;;;;;;;-128.00;-1.00;-1.00;101042;1305;1004391;-28
2023/03/06 01:32:41;;;;;;;13.80;6.10;;;;;;;-128.00;-1.00;-1.00;101230;1305;1004698;-35
2023/03/06 01:35:07;;;;;;;17.80;7.70;;;;;;;-128.00;-1.00;-1.00;101081;1305;1003469;-33
2023/03/06 01:37:35;;;;;;;12.00;5.30;;;;;;;-128.00;-1.00;-1.00;101134;1305;1003935;-29
2023/03/06 01:40:01;;;;;;;12.00;5.70;;;;;;;-128.00;-1.00;-1.00;100912;1305;1003215;-29
2023/03/06 01:42:26;;;;;;;18.90;9.80;;;;;;;-128.00;-1.00;-1.00;101170;1305;1003358;-29
2023/03/06 01:44:59;;;;;;;18.20;7.30;;;;;;;-128.00;-1.00;-1.00;101110;1305;1003299;-29
2023/03/06 01:47:25;;;;;;;9.70;5.10;;;;;;;-128.00;-1.00;-1.00;101189;1301;1003115;-32
2023/03/06 01:49:52;;;;;;;11.90;5.60;;;;;;;-128.00;-1.00;-1.00;101056;1305;1003292;-33
2023/03/06 01:52:20;;;;;;;17.90;8.70;;;;;;;-128.00;-1.00;-1.00;101161;1305;1002767;-28
2023/03/06 01:54:52;;;;;;;14.10;6.40;;;;;;;-128.00;-1.00;-1.00;101222;1305;1002782;-35
2023/03/06 01:57:21;;;;;;;27.70;4.90;;;;;;;-128.00;-1.00;-1.00;101173;1305;1004025;-29
2023/03/06 01:59:47;;;;;;;13.60;5.60;;;;;;;-128.00;-1.00;-1.00;100932;1305;1003086;-29
2023/03/06 02:02:13;;;;;;;11.70;6.10;;;;;;;-128.00;-1.00;-1.00;101104;1301;1002997;-34
2023/03/06 02:04:39;;;;;;;22.40;6.20;;;;;;;-128.00;-1.00;-1.00;101134;1305;1004779;-29
2023/03/06 02:07:05;;;;;;;19.30;7.90;;;;;;;-128.00;-1.00;-1.00;101007;1305;1003314;-34
2023/03/06 02:09:33;;;;;;;14.30;5.90;;;;;;;-128.00;-1.00;-1.00;101077;1305;1003156;-32
2023/03/06 02:12:00;;;;;;;11.00;5.40;;;;;;;-128.00;-1.00;-1.00;101077;1301;1002827;-33
2023/03/06 02:14:25;;;;;;;12.50;7.00;;;;;;;-128.00;-1.00;-1.00;101159;1305;1003201;-33
2023/03/06 02:16:51;;;;;;;11.90;5.30;;;;;;;-128.00;-1.00;-1.00;101195;1305;1002328;-29
2023/03/06 02:19:30;;;;;;;12.60;7.20;;;;;;;-128.00;-1.00;-1.00;101232;1305;1004172;-32
2023/03/06 02:21:56;;;;;;;8.90;5.00;;;;;;;-128.00;-1.00;-1.00;101096;1305;1004981;-34
2023/03/06 02:24:39;;;;;;;13.10;6.30;;;;;;;-128.00;-1.00;-1.00;101084;1305;1003158;-29
2023/03/06 02:27:05;;;;;;;19.10;5.80;;;;;;;-128.00;-1.00;-1.00;101082;1305;1002962;-35
2023/03/06 02:29:31;;;;;;;17.70;7.30;;;;;;;-128.00;-1.00;-1.00;101131;1305;1003705;-34
2023/03/06 02:31:57;;;;;;;18.20;7.00;;;;;;;-128.00;-1.00;-1.00;101077;1305;1004454;-29
2023/03/06 02:34:45;;;;;;;15.60;7.20;;;;;;;-128.00;-1.00;-1.00;101144;1305;1003747;-29
2023/03/06 02:37:11;;;;;;;12.90;6.00;;;;;;;-128.00;-1.00;-1.00;101221;1297;1003048;-29
2023/03/06 02:39:40;;;;;;;8.90;4.10;;;;;;;-128.00;-1.00;-1.00;101107;1305;1003666;-29
2023/03/06 02:42:06;;;;;;;8.70;5.30;;;;;;;-128.00;-1.00;-1.00;101187;1304;1002749;-34
2023/03/06 02:44:32;;;;;;;9.40;4.60;;;;;;;-128.00;-1.00;-1.00;101189;1305;1004672;-29
2023/03/06 02:46:58;;;;;;;9.70;4.30;;;;;;;-128.00;-1.00;-1.00;100814;1305;1004003;-35
2023/03/06 02:49:24;;;;;;;13.70;5.60;;;;;;;-128.00;-1.00;-1.00;101054;1305;1002640;-34
2023/03/06 02:51:50;;;;;;;10.20;5.10;;;;;;;-128.00;-1.00;-1.00;101209;1305;1004509;-34
2023/03/06 02:54:17;;;;;;;7.30;2.80;;;;;;;-128.00;-1.00;-1.00;101088;1301;1004729;-31
2023/03/06 02:56:43;;;;;;;11.70;5.70;;;;;;;-128.00;-1.00;-1.00;101055;1304;1003571;-35
2023/03/06 02:59:10;;;;;;;8.20;4.60;;;;;;;-128.00;-1.00;-1.00;101088;1305;1003784;-30
2023/03/06 03:01:36;;;;;;;8.90;3.30;;;;;;;-128.00;-1.00;-1.00;101235;1305;1002863;-34
2023/03/06 03:04:02;;;;;;;23.10;6.40;;;;;;;-128.00;-1.00;-1.00;101121;1305;1003440;-34
2023/03/06 03:06:28;;;;;;;11.90;4.70;;;;;;;-128.00;-1.00;-1.00;101131;1305;1003177;-29
2023/03/06 03:08:53;;;;;;;12.00;5.00;;;;;;;-128.00;-1.00;-1.00;101006;1305;1003982;-33
2023/03/06 03:11:19;;;;;;;16.20;3.90;;;;;;;-128.00;-1.00;-1.00;101044;1305;1003140;-33
2023/03/06 03:13:45;;;;;;;10.50;3.90;;;;;;;-128.00;-1.00;-1.00;101072;1305;1005062;-33
2023/03/06 03:16:14;;;;;;;15.70;4.60;;;;;;;-128.00;-1.00;-1.00;101168;1305;1003348;-29
2023/03/06 03:18:40;;;;;;;11.30;5.10;;;;;;;-128.00;-1.00;-1.00;101114;1305;1002824;-29
2023/03/06 03:21:07;;;;;;;8.40;4.60;;;;;;;-128.00;-1.00;-1.00;101109;1298;1002904;-29
2023/03/06 03:23:33;;;;;;;7.20;3.10;;;;;;;-128.00;-1.00;-1.00;101182;1305;1002498;-34
2023/03/06 03:26:15;;;;;;;10.40;4.80;;;;;;;-128.00;-1.00;-1.00;101094;1305;1003037;-30
2023/03/06 03:28:41;;;;;;;7.20;3.90;;;;;;;-128.00;-1.00;-1.00;100997;1305;1004140;-29
2023/03/06 03:31:08;;;;;;;8.00;3.80;;;;;;;-128.00;-1.00;-1.00;101103;1305;1003092;-34
2023/03/06 03:33:34;;;;;;;6.60;3.80;;;;;;;-128.00;-1.00;-1.00;101193;1305;1003482;-33
2023/03/06 03:36:00;;;;;;;6.10;3.00;;;;;;;-128.00;-1.00;-1.00;101166;1298;1002588;-33
2023/03/06 03:38:26;;;;;;;8.50;3.50;;;;;;;-128.00;-1.00;-1.00;101094;1305;1003220;-33
2023/03/06 03:40:52;;;;;;;9.40;4.40;;;;;;;-128.00;-1.00;-1.00;100701;1305;1003747;-36
2023/03/06 03:43:19;;;;;;;11.70;4.70;;;;;;;-128.00;-1.00;-1.00;101119;1305;1002774;-33
2023/03/06 03:45:44;;;;;;;13.90;4.20;;;;;;;-128.00;-1.00;-1.00;101095;1305;1002634;-30
2023/03/06 03:48:10;;;;;;;7.50;4.70;;;;;;;-128.00;-1.00;-1.00;101159;1305;1002465;-30
2023/03/06 03:50:36;;;;;;;8.60;4.20;;;;;;;-128.00;-1.00;-1.00;101101;1305;1003122;-29
2023/03/06 03:53:02;;;;;;;5.00;3.60;;;;;;;-128.00;-1.00;-1.00;101159;1305;1002990;-33
2023/03/06 03:55:29;;;;;;;13.20;3.70;;;;;;;-128.00;-1.00;-1.00;101059;1305;1003103;-34
2023/03/06 03:57:55;;;;;;;14.90;3.20;;;;;;;-128.00;-1.00;-1.00;101049;1305;1003819;-33
2023/03/06 04:00:21;;;;;;;3.70;2.10;;;;;;;-128.00;-1.00;-1.00;101255;1305;1003116;-30
2023/03/06 04:02:46;;;;;;;8.80;2.60;;;;;;;-128.00;-1.00;-1.00;101133;1305;1003135;-33
2023/03/06 04:05:16;;;;;;;9.50;2.60;;;;;;;-128.00;-1.00;-1.00;101062;1305;1003069;-34
2023/03/06 04:07:42;;;;;;;5.50;2.60;;;;;;;-128.00;-1.00;-1.00;101116;1305;1003444;-30
2023/03/06 04:10:10;;;;;;;7.20;3.50;;;;;;;-128.00;-1.00;-1.00;101100;1305;1004131;-30
2023/03/06 04:12:36;;;;;;;6.00;3.40;;;;;;;-128.00;-1.00;-1.00;101176;1301;1002969;-35
2023/03/06 04:15:02;;;;;;;3.60;2.20;;;;;;;-128.00;-1.00;-1.00;101029;1304;1002971;-30
2023/03/06 04:17:28;;;;;;;7.50;3.80;;;;;;;-128.00;-1.00;-1.00;101157;1305;1002510;-34
2023/03/06 04:19:54;;;;;;;10.50;2.70;;;;;;;-128.00;-1.00;-1.00;101131;1305;1003266;-33
2023/03/06 04:22:20;;;;;;;8.70;3.40;;;;;;;-128.00;-1.00;-1.00;101098;1305;1003337;-31
2023/03/06 04:24:48;;;;;;;4.60;2.80;;;;;;;-128.00;-1.00;-1.00;101103;1305;1005187;-34
2023/03/06 04:27:14;;;;;;;5.40;2.90;;;;;;;-128.00;-1.00;-1.00;101134;1305;1003871;-30
2023/03/06 04:29:40;;;;;;;9.00;3.30;;;;;;;-128.00;-1.00;-1.00;101167;1305;1003469;-34
2023/03/06 04:32:06;;;;;;;5.30;2.80;;;;;;;-128.00;-1.00;-1.00;101152;1305;1004199;-30
2023/03/06 04:34:32;;;;;;;10.20;2.60;;;;;;;-128.00;-1.00;-1.00;101111;1305;1002847;-34
2023/03/06 05:14:52;;;;;;;6.10;3.40;;;;;;;-102.98;19.20;19655.47;101332;1298;1545324;-30
2023/03/06 05:17:17;;;;;;;17.20;3.10;;;;;;;-128.00;-1.00;-1.00;100475;1303;1003842;-33
2023/03/06 05:19:43;;;;;;;5.50;3.60;;;;;;;-128.00;-1.00;-1.00;100945;1304;1004983;-29
2023/03/06 05:22:09;;;;;;;10.50;5.00;;;;;;;-128.00;-1.00;-1.00;101004;1304;1004585;-34
2023/03/06 05:24:35;;;;;;;12.00;3.30;;;;;;;-128.00;-1.00;-1.00;100916;1304;1004227;-29
2023/03/06 05:27:01;;;;;;;9.60;3.20;;;;;;;-128.00;-1.00;-1.00;101105;1304;1004976;-30
2023/03/06 05:29:27;;;;;;;11.10;4.20;;;;;;;-128.00;-1.00;-1.00;101006;1304;1004758;-31
2023/03/06 05:31:53;;;;;;;9.80;3.80;;;;;;;-128.00;-1.00;-1.00;101035;1304;1004343;-31
2023/03/06 05:34:19;;;;;;;5.20;3.50;;;;;;;-128.00;-1.00;-1.00;100913;1304;1003836;-34
2023/03/06 05:36:46;;;;;;;12.90;4.70;;;;;;;-128.00;-1.00;-1.00;101006;1304;1004372;-34
2023/03/06 05:39:12;;;;;;;7.80;4.00;;;;;;;-128.00;-1.00;-1.00;100978;1304;1005058;-29
2023/03/06 05:41:38;;;;;;;8.70;5.30;;;;;;;-128.00;-1.00;-1.00;101035;1304;1004124;-29
2023/03/06 05:44:03;;;;;;;8.90;5.40;;;;;;;-128.00;-1.00;-1.00;101046;1304;1005223;-31
2023/03/06 05:46:29;;;;;;;20.30;4.50;;;;;;;-128.00;-1.00;-1.00;101042;1304;1003902;-30
2023/03/06 05:48:56;;;;;;;10.40;4.70;;;;;;;-128.00;-1.00;-1.00;100977;1304;1004725;-34
2023/03/06 05:51:22;;;;;;;7.90;4.10;;;;;;;-128.00;-1.00;-1.00;100955;1304;1004291;-34
2023/03/06 05:53:48;;;;;;;14.70;4.30;;;;;;;-128.00;-1.00;-1.00;100960;1304;1004516;-30
2023/03/06 05:56:14;;;;;;;9.50;6.90;;;;;;;-128.00;-1.00;-1.00;101014;1304;1003991;-31
2023/03/06 05:58:40;;;;;;;17.30;8.90;;;;;;;-128.00;-1.00;-1.00;100873;1304;1004261;-33
2023/03/06 06:01:10;;;;;;;13.80;8.30;;;;;;;-128.00;-1.00;-1.00;101038;1304;1004607;-34
2023/03/06 06:03:36;;;;;;;13.90;6.60;;;;;;;-128.00;-1.00;-1.00;101015;1304;1004782;-34
2023/03/06 06:06:09;;;;;;;13.30;5.70;;;;;;;-128.00;-1.00;-1.00;100940;1304;1005260;-29
2023/03/06 06:08:35;;;;;;;6.00;4.20;;;;;;;-128.00;-1.00;-1.00;101045;1304;1004266;-31
2023/03/06 06:11:01;;;;;;;17.80;7.70;;;;;;;-128.00;-1.00;-1.00;101066;1304;1004593;-31
2023/03/06 06:13:27;;;;;;;18.20;8.50;;;;;;;-128.00;-1.00;-1.00;101083;1304;1004635;-35
2023/03/06 06:15:54;;;;;;;14.10;6.30;;;;;;;-128.00;-1.00;-1.00;101044;1304;1003730;-31
2023/03/06 06:18:20;;;;;;;18.40;6.80;;;;;;;-128.00;-1.00;-1.00;101129;1301;1005206;-35
2023/03/06 06:20:46;;;;;;;19.50;7.30;;;;;;;-128.00;-1.00;-1.00;101103;1304;1003991;-34
2023/03/06 06:23:12;;;;;;;18.40;8.90;;;;;;;-128.00;-1.00;-1.00;101147;1304;1003711;-29
2023/03/06 06:25:38;;;;;;;20.50;9.70;;;;;;;-128.00;-1.00;-1.00;101160;1304;1005247;-28
2023/03/06 06:28:04;;;;;;;16.40;9.40;;;;;;;-128.00;-1.00;-1.00;101104;1304;1004409;-33
2023/03/06 06:30:31;;;;;;;21.90;10.40;;;;;;;-128.00;-1.00;-1.00;101175;1304;1003164;-30
2023/03/06 06:32:57;;;;;;;10.10;6.40;;;;;;;-128.00;-1.00;-1.00;101071;1304;1004581;-30
2023/03/06 06:35:23;;;;;;;14.90;7.30;;;;;;;-128.00;-1.00;-1.00;101186;1304;1004496;-31
2023/03/06 06:37:49;;;;;;;15.70;7.70;;;;;;;-128.00;-1.00;-1.00;101295;1304;1003134;-35
2023/03/06 06:40:15;;;;;;;20.20;9.20;;;;;;;-128.00;-1.00;-1.00;101087;1304;1003414;-33
2023/03/06 06:42:42;;;;;;;7.70;4.90;;;;;;;-128.00;-1.00;-1.00;101228;1304;1004247;-30
2023/03/06 06:45:09;;;;;;;21.90;10.30;;;;;;;-128.00;-1.00;-1.00;101192;1304;1002164;-30
2023/03/06 06:47:39;;;;;;;16.70;8.30;;;;;;;-128.00;-1.00;-1.00;101030;1304;1003546;-35
2023/03/06 06:50:06;;;;;;;19.80;11.80;;;;;;;-128.00;-1.00;-1.00;101010;1304;1003884;-31
2023/03/06 06:52:32;;;;;;;14.70;9.00;;;;;;;-128.00;-1.00;-1.00;101052;1304;1003706;-32
2023/03/06 06:54:58;;;;;;;19.20;10.00;;;;;;;-128.00;-1.00;-1.00;101091;1304;1002893;-30
2023/03/06 06:57:24;;;;;;;14.30;9.00;;;;;;;-128.00;-1.00;-1.00;101106;1304;1003270;-37
2023/03/06 06:59:50;;;;;;;18.90;10.40;;;;;;;-128.00;-1.00;-1.00;101088;1304;1004447;-30
2023/03/06 07:02:16;;;;;;;16.60;10.90;;;;;;;-128.00;-1.00;-1.00;101219;1305;1004684;-31
2023/03/06 07:04:42;;;;;;;14.30;9.80;;;;;;;-128.00;-1.00;-1.00;101342;1304;1002750;-31
2023/03/06 07:07:08;;;;;;;19.00;11.30;;;;;;;-128.00;-1.00;-1.00;101120;1304;1003309;-34
2023/03/06 07:09:34;;;;;;;18.60;10.60;;;;;;;-128.00;-1.00;-1.00;101160;1304;1004533;-35
2023/03/06 07:12:00;;;;;;;18.90;10.00;;;;;;;-128.00;-1.00;-1.00;101113;1304;1003947;-35
2023/03/06 07:14:27;;;;;;;12.70;7.40;;;;;;;-128.00;-1.00;-1.00;101115;1304;1003603;-36
2023/03/06 07:16:52;;;;;;;17.30;10.50;;;;;;;-128.00;-1.00;-1.00;101135;1304;1002619;-37
2023/03/06 07:19:18;;;;;;;11.80;6.80;;;;;;;-128.00;-1.00;-1.00;101185;1304;1003379;-31
2023/03/06 07:21:44;;;;;;;18.10;8.90;;;;;;;-128.00;-1.00;-1.00;101189;1304;1005121;-31
2023/03/06 07:24:10;;;;;;;14.50;9.50;;;;;;;-128.00;-1.00;-1.00;101168;1304;1003839;-36
2023/03/06 07:26:36;;;;;;;13.50;8.40;;;;;;;-128.00;-1.00;-1.00;101190;1304;1004380;-32
2023/03/06 07:29:02;;;;;;;17.80;10.10;;;;;;;-128.00;-1.00;-1.00;101170;1304;1002603;-32
2023/03/06 07:31:28;;;;;;;11.80;8.50;;;;;;;-128.00;-1.00;-1.00;101095;1304;1002737;-36
2023/03/06 07:33:54;;;;;;;17.10;10.00;;;;;;;-128.00;-1.00;-1.00;101158;1304;1004448;-31
2023/03/06 07:36:21;;;;;;;13.50;8.50;;;;;;;-128.00;-1.00;-1.00;101196;1304;1003507;-36
2023/03/06 07:38:47;;;;;;;14.40;10.00;;;;;;;-128.00;-1.00;-1.00;101163;1304;1004862;-35
2023/03/06 07:41:14;;;;;;;8.50;5.20;;;;;;;-128.00;-1.00;-1.00;101149;1304;1004632;-35
2023/03/06 07:43:40;;;;;;;11.30;8.40;;;;;;;-128.00;-1.00;-1.00;101127;1304;1005030;-35
2023/03/06 07:46:06;;;;;;;10.40;6.30;;;;;;;-128.00;-1.00;-1.00;101107;1304;1003483;-35
2023/03/06 07:48:32;;;;;;;17.10;8.50;;;;;;;-128.00;-1.00;-1.00;100782;1304;1002968;-31
2023/03/06 07:51:06;;;;;;;14.40;8.90;;;;;;;-128.00;-1.00;-1.00;101125;1304;1004523;-31
2023/03/06 07:53:31;;;;;;;14.70;8.60;;;;;;;-128.00;-1.00;-1.00;101117;1302;1002232;-36
2023/03/06 07:55:57;;;;;;;15.70;9.50;;;;;;;-128.00;-1.00;-1.00;101074;1304;1003317;-35
2023/03/06 07:58:23;;;;;;;16.70;9.10;;;;;;;-128.00;-1.00;-1.00;101170;1304;1003296;-34
2023/03/06 08:00:49;;;;;;;18.30;9.50;;;;;;;-128.00;-1.00;-1.00;101142;1304;1002382;-34
2023/03/06 08:03:15;;;;;;;16.50;7.60;;;;;;;-128.00;-1.00;-1.00;101043;1304;1003012;-35
2023/03/06 08:05:41;;;;;;;7.30;4.80;;;;;;;-128.00;-1.00;-1.00;101047;1305;1003143;-33
2023/03/06 08:08:07;;;;;;;16.40;10.50;;;;;;;-128.00;-1.00;-1.00;101138;1304;1002964;-34
2023/03/06 08:10:33;;;;;;;11.60;6.80;;;;;;;-128.00;-1.00;-1.00;101172;1304;1003780;-35
2023/03/06 08:13:00;;;;;;;12.00;6.90;;;;;;;-128.00;-1.00;-1.00;101147;1304;1003714;-35
2023/03/06 08:15:26;;;;;;;8.30;6.00;;;;;;;-128.00;-1.00;-1.00;101183;1304;1003759;-34
2023/03/06 08:17:52;;;;;;;11.70;8.40;;;;;;;-128.00;-1.00;-1.00;101128;1304;1002873;-30
2023/03/06 08:20:17;;;;;;;13.80;7.90;;;;;;;-128.00;-1.00;-1.00;101066;1304;1003694;-30
2023/03/06 08:22:44;;;;;;;15.50;8.70;;;;;;;-128.00;-1.00;-1.00;101159;1304;1003069;-30
2023/03/06 08:25:12;;;;;;;12.40;8.30;;;;;;;-128.00;-1.00;-1.00;101083;1297;1002588;-32
2023/03/06 08:27:37;;;;;;;10.10;8.20;;;;;;;-128.00;-1.00;-1.00;101170;1304;1002882;-34
2023/03/06 08:30:04;;;;;;;20.40;10.10;;;;;;;-128.00;-1.00;-1.00;101163;1304;1002977;-30
2023/03/06 08:32:30;;;;;;;16.00;11.40;;;;;;;-128.00;-1.00;-1.00;101199;1304;1004784;-30
2023/03/06 08:34:56;;;;;;;14.00;8.80;;;;;;;-128.00;-1.00;-1.00;100954;1304;1003826;-34
2023/03/06 08:37:22;;;;;;;17.40;9.30;;;;;;;-128.00;-1.00;-1.00;101122;1304;1003794;-34
2023/03/06 08:39:48;;;;;;;14.90;9.20;;;;;;;-128.00;-1.00;-1.00;101175;1304;1002864;-31
2023/03/06 08:42:14;;;;;;;7.10;4.40;;;;;;;-128.00;-1.00;-1.00;100827;1304;1002827;-31
2023/03/06 08:44:41;;;;;;;13.70;8.60;;;;;;;-128.00;-1.00;-1.00;101179;1305;1003685;-31
2023/03/06 08:47:07;;;;;;;13.00;7.70;;;;;;;-128.00;-1.00;-1.00;101124;1304;1003796;-29
2023/03/06 08:49:34;;;;;;;12.50;8.90;;;;;;;-128.00;-1.00;-1.00;101181;1297;1002683;-33
2023/03/06 08:52:00;;;;;;;11.90;8.60;;;;;;;-128.00;-1.00;-1.00;101131;1304;1003427;-32
2023/03/06 08:54:26;;;;;;;13.20;7.80;;;;;;;-128.00;-1.00;-1.00;101088;1304;1002818;-31
2023/03/06 08:56:53;;;;;;;11.70;8.90;;;;;;;-128.00;-1.00;-1.00;101190;1304;1002977;-34
2023/03/06 08:59:19;;;;;;;12.50;9.30;;;;;;;-128.00;-1.00;-1.00;101127;1304;1003023;-31
2023/03/06 09:01:46;;;;;;;11.80;8.40;;;;;;;-128.00;-1.00;-1.00;101191;1297;1002997;-32
2023/03/06 09:04:11;;;;;;;14.50;8.00;;;;;;;-128.00;-1.00;-1.00;101116;1304;1003036;-32
2023/03/06 09:06:40;;;;;;;18.50;8.80;;;;;;;-128.00;-1.00;-1.00;101022;1304;1003321;-36
2023/03/06 09:09:06;;;;;;;12.70;8.90;;;;;;;-128.00;-1.00;-1.00;101176;1304;1003449;-36
2023/03/06 09:11:32;;;;;;;13.10;8.70;;;;;;;-128.00;-1.00;-1.00;101063;1304;1003241;-32
2023/03/06 09:13:58;;;;;;;16.50;10.60;;;;;;;-128.00;-1.00;-1.00;101225;1304;1004122;-35
2023/03/06 09:16:24;;;;;;;14.00;10.20;;;;;;;-128.00;-1.00;-1.00;101235;1304;1004227;-31
2023/03/06 09:18:52;;;;;;;10.20;8.30;;;;;;;-128.00;-1.00;-1.00;101110;1297;1003252;-35
2023/03/06 09:21:19;;;;;;;12.10;8.90;;;;;;;-128.00;-1.00;-1.00;101184;1303;1003977;-34
2023/03/06 09:23:45;;;;;;;20.20;7.40;;;;;;;-128.00;-1.00;-1.00;101182;1304;1003361;-37
2023/03/06 09:26:11;;;;;;;12.30;9.20;;;;;;;-128.00;-1.00;-1.00;100864;1304;1005208;-34
2023/03/06 09:28:38;;;;;;;11.00;6.90;;;;;;;-128.00;-1.00;-1.00;101043;1304;1003520;-28
2023/03/06 09:31:12;;;;;;;15.30;9.90;;;;;;;-128.00;-1.00;-1.00;100886;1304;1002655;-29
2023/03/06 09:33:39;;;;;;;15.20;9.70;;;;;;;-128.00;-1.00;-1.00;101168;1305;1003014;-33
2023/03/06 09:36:05;;;;;;;18.00;10.00;;;;;;;-128.00;-1.00;-1.00;101039;1304;1004844;-32
2023/03/06 09:38:31;;;;;;;11.50;8.60;;;;;;;-128.00;-1.00;-1.00;101121;1304;1003215;-32
2023/03/06 09:41:04;;;;;;;11.10;9.30;;;;;;;-128.00;-1.00;-1.00;101097;1304;1003301;-36
2023/03/06 09:43:34;;;;;;;14.00;9.80;;;;;;;-128.00;-1.00;-1.00;101132;1304;1004072;-34
2023/03/06 09:46:00;;;;;;;11.50;7.80;;;;;;;-128.00;-1.00;-1.00;100926;1304;1003006;-35
2023/03/06 09:48:33;;;;;;;10.70;7.70;;;;;;;-128.00;-1.00;-1.00;101153;1304;1002960;-34
2023/03/06 09:51:03;;;;;;;9.60;6.90;;;;;;;-128.00;-1.00;-1.00;101135;1298;1003067;-34
2023/03/06 09:53:52;;;;;;;13.10;8.00;;;;;;;-128.00;-1.00;-1.00;101053;1303;1003248;-34
2023/03/06 09:56:22;;;;;;;9.50;6.40;;;;;;;-128.00;-1.00;-1.00;101193;1302;1002645;-34
2023/03/06 09:58:57;;;;;;;11.50;7.00;;;;;;;-128.00;-1.00;-1.00;101164;1304;1003538;-30
2023/03/06 10:01:26;;;;;;;9.70;6.00;;;;;;;-128.00;-1.00;-1.00;101108;1304;1003332;-30
2023/03/06 10:04:20;;;;;;;8.80;6.40;;;;;;;-128.00;-1.00;-1.00;101178;1304;1003245;-31
2023/03/06 10:06:50;;;;;;;9.20;6.40;;;;;;;-128.00;-1.00;-1.00;101155;1304;1003222;-31
2023/03/06 10:09:22;;;;;;;7.80;6.30;;;;;;;-128.00;-1.00;-1.00;101141;1304;1002686;-34
2023/03/06 10:11:55;;;;;;;7.30;6.50;;;;;;;-128.00;-1.00;-1.00;101222;1304;1003663;-34
2023/03/06 10:14:36;;;;;;;9.90;6.90;;;;;;;-128.00;-1.00;-1.00;101082;1304;1002476;-31
2023/03/06 10:17:02;;;;;;;10.20;6.10;;;;;;;-128.00;-1.00;-1.00;101173;1304;1002663;-34
2023/03/06 10:19:34;;;;;;;8.40;7.00;;;;;;;-128.00;-1.00;-1.00;101179;1301;1002830;-33
2023/03/06 10:22:19;;;;;;;9.50;6.90;;;;;;;-128.00;-1.00;-1.00;101177;1304;1004916;-30
2023/03/06 10:24:53;;;;;;;12.20;6.00;;;;;;;-128.00;-1.00;-1.00;101058;1304;1004311;-35
2023/03/06 10:27:30;;;;;;;10.80;6.30;;;;;;;-128.00;-1.00;-1.00;101110;1297;1003051;-31
2023/03/06 10:30:21;;;;;;;6.60;4.50;;;;;;;-128.00;-1.00;-1.00;101165;1304;1002722;-30
2023/03/06 10:33:00;;;;;;;10.10;4.90;;;;;;;-128.00;-1.00;-1.00;101101;1304;1003526;-30
2023/03/06 10:35:31;;;;;;;4.90;4.50;;;;;;;-128.00;-1.00;-1.00;101107;1304;1003092;-37
2023/03/06 10:38:00;;;;;;;8.40;6.40;;;;;;;-128.00;-1.00;-1.00;101113;1304;1003604;-31
2023/03/06 10:40:29;;;;;;;9.50;5.50;;;;;;;-128.00;-1.00;-1.00;101127;1304;1003735;-31
2023/03/06 10:42:56;;;;;;;4.60;3.60;;;;;;;-128.00;-1.00;-1.00;101113;1301;1003349;-31
2023/03/06 10:45:21;;;;;;;5.50;4.30;;;;;;;-128.00;-1.00;-1.00;100896;1304;1003461;-37
2023/03/06 10:47:47;;;;;;;9.80;6.00;;;;;;;-128.00;-1.00;-1.00;101212;1304;1002501;-31
2023/03/06 10:50:21;;;;;;;7.00;4.50;;;;;;;-128.00;-1.00;-1.00;101060;1304;1002806;-30
2023/03/06 10:52:50;;;;;;;;;;;;;;;-128.00;-1.00;-1.00;101114;1303;1002945;-31
2023/03/06 10:55:28;;;;;;;11.10;6.80;;;;;;;-128.00;-1.00;-1.00;101136;1304;1003267;-30
2023/03/06 10:57:54;;;;;;;7.30;4.60;;;;;;;-128.00;-1.00;-1.00;101100;1304;1003297;-34
2023/03/06 11:00:26;;;;;;;7.70;4.00;;;;;;;-128.00;-1.00;-1.00;101062;1304;1003483;-34
2023/03/06 11:02:59;;;;;;;10.60;6.50;;;;;;;-128.00;-1.00;-1.00;101010;1302;1002719;-34
2023/03/06 11:46:37;;;;;;;4.30;2.80;;;;;;;5.18;68.26;98141.33;104307;1298;557863;-34
2023/03/06 11:49:22;;;;;;;4.50;3.70;;;;;;;5.09;68.50;98136.59;104221;1304;305028;-33
2023/03/06 11:51:50;;;;;;;8.50;4.70;;;;;;;4.97;68.76;98133.79;104279;1297;22818;-29
2023/03/06 11:54:17;;;;;;;6.90;4.30;;;;;;;4.87;71.47;98128.02;104530;1287;22681;-30
2023/03/06 11:56:50;;;;;;;4.20;3.10;;;;;;;5.00;71.24;98126.89;104536;1294;22744;-30
2023/03/06 11:59:43;;;;;;;7.20;4.00;;;;;;;5.24;69.88;98124.30;104504;1291;24450;-29
2023/03/06 12:02:33;;;;;;;2.80;2.20;;;;;;;5.44;66.91;98120.70;104501;1294;22824;-33
2023/03/06 12:05:25;;;;;;;3.60;2.60;;;;;;;5.34;65.28;98115.48;104481;1296;24241;-31
2023/03/06 12:08:11;;;;;;;10.20;3.30;;;;;;;5.45;64.85;98110.59;104535;1294;22812;-35
2023/03/06 12:10:41;;;;;;;4.00;2.60;;;;;;;5.55;64.96;98105.83;104502;1287;24370;-35
2023/03/06 12:13:17;;;;;;;4.00;1.70;;;;;;;5.51;64.73;98103.55;104460;1288;23166;-35
2023/03/06 12:15:50;;;;;;;6.40;2.70;;;;;;;5.36;63.76;98105.75;104529;1291;22556;-30
2023/03/06 12:18:47;;;;;;;3.80;1.30;;;;;;;5.43;64.40;98103.00;104536;1291;23958;-35
2023/03/06 12:21:38;;;;;;;2.90;2.10;;;;;;;5.39;65.07;98105.40;104546;1305;23170;-30
2023/03/06 12:24:23;;;;;;;20.20;3.40;;;;;;;5.45;66.08;98096.42;104493;1294;22672;-34
2023/03/06 12:27:04;;;;;;;3.40;2.60;;;;;;;5.81;63.85;98087.51;104501;1294;22573;-30
2023/03/06 12:29:49;;;;;;;3.10;2.70;;;;;;;5.83;62.88;98092.44;104468;1305;22643;-30
2023/03/06 12:32:36;;;;;;;5.70;3.80;;;;;;;5.66;63.93;98086.66;104394;1297;25302;-30
2023/03/06 12:35:34;;;;;;;5.50;3.60;;;;;;;5.73;64.19;98089.07;104557;1295;22670;-34